createdAt,value
2022-12-03T00:00:14.927Z,-0.91
2022-12-03T00:02:43.469Z,-0.90
2022-12-03T00:05:11.860Z,-0.86
2022-12-03T00:07:41.587Z,-0.89
2022-12-03T00:10:10.439Z,-0.87
2022-12-03T00:12:38.706Z,-1.02
2022-12-03T00:15:08.370Z,-0.92
2022-12-03T00:17:36.355Z,-1.32
2022-12-03T00:20:07.876Z,-1.04
2022-12-03T00:22:38.454Z,-0.95
2022-12-03T00:25:07.569Z,-1.14
2022-12-03T00:27:35.840Z,-1.03
2022-12-03T00:30:06.000Z,-1.00
2022-12-03T00:32:34.807Z,-1.06
2022-12-03T00:35:02.894Z,-1.61
2022-12-03T00:37:31.577Z,-0.94
2022-12-03T00:40:06.121Z,-0.97
2022-12-03T00:42:38.564Z,-1.69
2022-12-03T00:45:09.114Z,-1.04
2022-12-03T00:47:39.729Z,-1.17
2022-12-03T00:50:08.669Z,-0.95
2022-12-03T00:52:36.650Z,-0.95
2022-12-03T00:55:05.430Z,-1.06
2022-12-03T00:57:33.591Z,-1.33
2022-12-03T01:00:01.608Z,-1.09
2022-12-03T01:02:29.856Z,-1.81
2022-12-03T01:04:58.096Z,-1.11
2022-12-03T01:07:26.398Z,-1.01
2022-12-03T01:09:54.472Z,-1.29
2022-12-03T01:12:22.682Z,-1.36
2022-12-03T01:14:53.648Z,-1.27
2022-12-03T01:17:22.567Z,-1.01
2022-12-03T01:19:52.904Z,-0.97
2022-12-03T01:22:21.161Z,-0.99
2022-12-03T01:24:49.292Z,-0.98
2022-12-03T01:27:17.464Z,-1.08
2022-12-03T01:29:45.508Z,-1.01
2022-12-03T01:32:18.550Z,-1.01
2022-12-03T01:34:51.804Z,-1.06
2022-12-03T01:37:23.603Z,-1.46
2022-12-03T01:39:52.948Z,-1.17
2022-12-03T01:42:37.614Z,-1.31
2022-12-03T01:45:07.738Z,-1.05
2022-12-03T01:47:38.300Z,-0.98
2022-12-03T01:50:15.763Z,-1.02
2022-12-03T01:52:44.560Z,-1.05
2022-12-03T01:55:20.196Z,-1.00
2022-12-03T01:57:53.386Z,-1.05
2022-12-03T02:00:25.352Z,-1.26
2022-12-03T02:03:04.525Z,-1.28
2022-12-03T02:05:34.452Z,-1.04
2022-12-03T02:08:02.796Z,-0.97
2022-12-03T02:10:38.054Z,-1.32
2022-12-03T02:13:10.269Z,-1.06
2022-12-03T02:15:40.919Z,-0.92
2022-12-03T02:18:10.378Z,-1.45
2022-12-03T02:21:13.851Z,-0.89
2022-12-03T02:24:08.222Z,-0.89
2022-12-03T02:29:26.367Z,-1.02
2022-12-03T02:31:54.561Z,-0.91
2022-12-03T02:34:43.739Z,-0.94
2022-12-03T02:37:17.325Z,-0.89
2022-12-03T02:39:59.246Z,-0.82
2022-12-03T02:42:36.029Z,-0.89
2022-12-03T02:45:21.810Z,-1.08
2022-12-03T02:47:56.054Z,-1.79
2022-12-03T02:50:31.992Z,-0.90
2022-12-03T02:53:06.989Z,-1.10
2022-12-03T02:55:37.383Z,-0.82
2022-12-03T02:58:06.455Z,-1.17
2022-12-03T03:00:36.308Z,-0.89
2022-12-03T03:03:06.731Z,-0.80
2022-12-03T03:05:38.651Z,-1.13
2022-12-03T03:08:08.601Z,-0.84
2022-12-03T03:10:39.433Z,-0.85
2022-12-03T03:13:14.096Z,-1.08
2022-12-03T03:15:43.016Z,-0.96
2022-12-03T03:18:13.538Z,-0.92
2022-12-03T03:20:42.774Z,-1.15
2022-12-03T03:23:21.911Z,-0.92
2022-12-03T03:26:09.616Z,-0.76
2022-12-03T03:28:44.907Z,-1.07
2022-12-03T03:31:18.182Z,-0.75
2022-12-03T03:33:49.747Z,-1.16
2022-12-03T03:36:22.132Z,-1.02
2022-12-03T03:38:50.510Z,-0.83
2022-12-03T03:41:20.715Z,-0.73
2022-12-03T03:43:50.244Z,-0.79
2022-12-03T03:46:20.520Z,-0.85
2022-12-03T03:48:51.787Z,-0.92
2022-12-03T03:51:20.453Z,-1.20
2022-12-03T03:53:49.973Z,-0.89
2022-12-03T03:56:20.932Z,-0.68
2022-12-03T03:58:49.155Z,-0.73
2022-12-03T04:01:18.405Z,-1.01
2022-12-03T04:03:47.083Z,-0.68
2022-12-03T04:06:15.562Z,-0.65
2022-12-03T04:08:43.505Z,-0.74
2022-12-03T04:11:30.487Z,-0.71
2022-12-03T04:13:58.789Z,-0.65
2022-12-03T04:16:26.744Z,-0.78
2022-12-03T04:18:55.012Z,-0.70
2022-12-03T04:21:42.797Z,-1.02
2022-12-03T04:24:12.378Z,-0.66
2022-12-03T04:26:59.389Z,-0.93
2022-12-03T04:29:27.461Z,-0.61
2022-12-03T04:32:14.384Z,-0.53
2022-12-03T04:35:01.564Z,-1.08
2022-12-03T04:37:29.869Z,-0.82
2022-12-03T04:39:57.878Z,-0.58
2022-12-03T04:42:28.909Z,-0.52
2022-12-03T04:45:01.724Z,-0.48
2022-12-03T04:47:33.220Z,-0.54
2022-12-03T04:50:07.754Z,-0.75
2022-12-03T04:52:38.311Z,-0.84
2022-12-03T04:55:06.774Z,-0.63
2022-12-03T04:57:34.692Z,-0.73
2022-12-03T05:00:04.656Z,-0.65
2022-12-03T05:02:32.723Z,-0.65
2022-12-03T05:05:00.682Z,-0.67
2022-12-03T05:07:29.079Z,-0.50
2022-12-03T05:09:57.283Z,-0.58
2022-12-03T05:12:25.381Z,-0.59
2022-12-03T05:14:59.352Z,-0.51
2022-12-03T05:17:27.546Z,-0.53
2022-12-03T05:20:14.484Z,-0.61
2022-12-03T05:22:42.532Z,-0.75
2022-12-03T05:25:10.822Z,-0.55
2022-12-03T05:27:39.274Z,-0.55
2022-12-03T05:30:08.349Z,-0.47
2022-12-03T05:32:36.463Z,-0.56
2022-12-03T05:35:05.292Z,-0.54
2022-12-03T05:37:33.324Z,-0.51
2022-12-03T05:40:01.177Z,-0.79
2022-12-03T05:42:48.165Z,-0.48
2022-12-03T05:45:16.515Z,-0.65
2022-12-03T05:47:44.603Z,-0.51
2022-12-03T05:50:13.255Z,-0.48
2022-12-03T05:52:41.385Z,-0.68
2022-12-03T05:55:10.663Z,-1.16
2022-12-03T05:57:39.770Z,-0.41
2022-12-03T06:00:20.160Z,-0.47
2022-12-03T06:02:48.524Z,-0.52
2022-12-03T06:05:19.595Z,-0.41
2022-12-03T06:07:50.655Z,-0.49
2022-12-03T06:10:25.197Z,-0.41
2022-12-03T06:12:53.663Z,-0.52
2022-12-03T06:15:22.488Z,-0.69
2022-12-03T06:17:54.571Z,-0.49
2022-12-03T06:20:29.665Z,-0.44
2022-12-03T06:22:59.991Z,-0.32
2022-12-03T06:25:28.161Z,-0.38
2022-12-03T06:28:00.959Z,-0.34
2022-12-03T06:30:34.725Z,-0.52
2022-12-03T06:33:02.905Z,-0.32
2022-12-03T06:35:33.497Z,-0.36
2022-12-03T06:38:01.644Z,-0.38
2022-12-03T06:40:29.659Z,-0.29
2022-12-03T06:42:58.317Z,-0.35
2022-12-03T06:45:26.468Z,-0.44
2022-12-03T06:47:54.380Z,-0.20
2022-12-03T06:50:22.862Z,-0.13
2022-12-03T06:52:52.144Z,-0.40
2022-12-03T06:55:23.027Z,-0.06
2022-12-03T06:57:51.441Z,-0.21
2022-12-03T07:00:20.344Z,-0.13
2022-12-03T07:02:49.878Z,-0.12
2022-12-03T07:05:18.215Z,-0.06
2022-12-03T07:07:52.244Z,-0.05
2022-12-03T07:10:21.102Z,0.08
2022-12-03T07:12:49.236Z,-0.03
2022-12-03T07:15:17.438Z,0.05
2022-12-03T07:17:45.743Z,0.06
2022-12-03T07:20:14.165Z,0.03
2022-12-03T07:22:42.224Z,0.13
2022-12-03T07:25:11.490Z,0.12
2022-12-03T07:27:39.578Z,0.10
2022-12-03T07:30:09.213Z,-0.05
2022-12-03T07:32:37.520Z,0.12
2022-12-03T07:35:07.659Z,0.10
2022-12-03T07:37:37.889Z,0.14
2022-12-03T07:40:06.844Z,0.25
2022-12-03T07:42:34.901Z,0.25
2022-12-03T07:45:03.772Z,0.28
2022-12-03T07:47:32.298Z,0.26
2022-12-03T07:50:00.314Z,0.20
2022-12-03T07:52:28.543Z,0.21
2022-12-03T07:54:57.288Z,0.41
2022-12-03T07:57:25.311Z,0.45
2022-12-03T07:59:53.698Z,0.46
2022-12-03T08:02:22.135Z,0.56
2022-12-03T08:04:50.283Z,0.41
2022-12-03T08:07:18.551Z,0.28
2022-12-03T08:09:46.831Z,0.62
2022-12-03T08:12:42.710Z,0.59
2022-12-03T08:15:26.208Z,0.37
2022-12-03T08:18:00.760Z,0.46
2022-12-03T08:20:38.727Z,0.41
2022-12-03T08:23:34.626Z,0.80
2022-12-03T08:26:21.282Z,0.75
2022-12-03T08:28:50.144Z,0.82
2022-12-03T08:31:29.355Z,0.88
2022-12-03T08:34:18.899Z,0.73
2022-12-03T08:37:21.728Z,0.85
2022-12-03T08:39:54.668Z,0.83
2022-12-03T08:42:43.142Z,0.85
2022-12-03T08:45:29.814Z,0.90
2022-12-03T08:52:00.434Z,0.86
2022-12-03T08:54:28.805Z,0.80
2022-12-03T09:01:19.172Z,0.91
2022-12-03T09:03:54.828Z,0.37
2022-12-03T09:06:23.767Z,0.92
2022-12-03T09:08:52.155Z,0.97
2022-12-03T09:11:20.375Z,0.96
2022-12-03T09:13:49.624Z,0.96
2022-12-03T09:16:17.843Z,0.94
2022-12-03T09:18:46.984Z,0.99
2022-12-03T09:21:15.524Z,0.73
2022-12-03T09:23:43.691Z,0.93
2022-12-03T09:26:12.774Z,0.73
2022-12-03T09:28:40.913Z,0.92
2022-12-03T09:31:09.242Z,0.87
2022-12-03T09:33:37.291Z,0.95
2022-12-03T09:36:06.867Z,1.07
2022-12-03T09:38:41.846Z,1.07
2022-12-03T09:41:12.613Z,0.96
2022-12-03T09:44:03.311Z,0.84
2022-12-03T09:46:30.729Z,0.85
2022-12-03T09:48:59.074Z,0.76
2022-12-03T09:51:39.520Z,0.89
2022-12-03T09:54:08.313Z,0.94
2022-12-03T09:56:38.402Z,0.83
2022-12-03T09:59:17.147Z,1.03
2022-12-03T10:01:45.923Z,1.00
2022-12-03T10:04:14.212Z,1.05
2022-12-03T10:06:46.038Z,0.94
2022-12-03T10:09:27.560Z,1.11
2022-12-03T10:12:00.196Z,1.07
2022-12-03T10:14:31.334Z,1.15
2022-12-03T10:17:00.322Z,1.15
2022-12-03T10:19:33.180Z,0.74
2022-12-03T10:22:05.889Z,1.16
2022-12-03T10:24:37.073Z,1.18
2022-12-03T10:27:29.563Z,1.18
2022-12-03T10:33:21.670Z,1.17
2022-12-03T10:35:50.128Z,1.19
2022-12-03T10:38:18.211Z,1.20
2022-12-03T10:40:47.482Z,1.16
2022-12-03T10:43:18.641Z,1.16
2022-12-03T10:46:13.581Z,1.28
2022-12-03T10:48:44.420Z,1.22
2022-12-03T10:51:22.586Z,1.09
2022-12-03T10:53:51.593Z,1.20
2022-12-03T10:56:26.247Z,1.22
2022-12-03T10:58:55.375Z,1.26
2022-12-03T11:01:26.686Z,1.23
2022-12-03T11:04:01.270Z,1.28
2022-12-03T11:06:40.805Z,1.25
2022-12-03T11:09:44.006Z,1.37
2022-12-03T11:13:27.244Z,1.47
2022-12-03T11:16:03.218Z,1.00
2022-12-03T11:18:38.200Z,1.10
2022-12-03T11:21:07.658Z,1.23
2022-12-03T11:23:47.917Z,1.17
2022-12-03T11:26:19.501Z,1.14
2022-12-03T11:28:48.045Z,1.24
2022-12-03T11:31:53.031Z,1.22
2022-12-03T11:37:16.585Z,1.24
2022-12-03T11:39:58.275Z,1.19
2022-12-03T11:46:10.654Z,1.09
2022-12-03T11:48:46.209Z,1.15
2022-12-03T11:51:23.446Z,1.37
2022-12-03T11:53:58.835Z,1.37
2022-12-03T12:00:28.681Z,1.31
2022-12-03T12:02:59.938Z,0.75
2022-12-03T12:05:34.061Z,1.34
2022-12-03T12:08:03.668Z,1.31
2022-12-03T12:10:58.319Z,1.28
2022-12-03T12:13:34.103Z,1.28
2022-12-03T12:16:09.073Z,1.25
2022-12-03T12:18:45.900Z,1.34
2022-12-03T12:22:00.822Z,1.39
2022-12-03T12:24:43.358Z,1.47
2022-12-03T12:27:17.352Z,1.46
2022-12-03T12:30:10.468Z,1.18
2022-12-03T12:32:52.658Z,0.86
2022-12-03T12:35:42.705Z,1.38
2022-12-03T12:38:18.192Z,0.94
2022-12-03T12:40:51.934Z,1.48
2022-12-03T12:43:32.788Z,1.20
2022-12-03T12:46:46.597Z,1.26
2022-12-03T12:49:15.838Z,1.41
2022-12-03T12:52:40.069Z,1.51
2022-12-03T12:55:11.043Z,1.22
2022-12-03T12:57:40.986Z,1.55
2022-12-03T13:00:20.779Z,1.49
2022-12-03T13:03:06.050Z,1.15
2022-12-03T13:05:59.786Z,1.48
2022-12-03T13:08:46.099Z,1.45
2022-12-03T13:11:53.691Z,1.36
2022-12-03T13:17:26.345Z,1.50
2022-12-03T13:27:34.211Z,1.23
2022-12-03T13:30:29.525Z,1.35
2022-12-03T13:33:00.294Z,1.35
2022-12-03T13:35:44.376Z,0.68
2022-12-03T13:38:26.835Z,1.31
2022-12-03T13:41:39.305Z,1.51
2022-12-03T13:44:22.805Z,1.47
2022-12-03T13:50:04.157Z,1.52
2022-12-03T13:52:34.840Z,1.18
2022-12-03T13:55:07.411Z,1.20
2022-12-03T13:57:35.786Z,1.51
2022-12-03T14:00:05.403Z,1.48
2022-12-03T14:02:42.375Z,1.52
2022-12-03T14:05:10.934Z,1.39
2022-12-03T14:07:39.672Z,1.53
2022-12-03T14:10:13.432Z,1.34
2022-12-03T14:12:49.673Z,1.52
2022-12-03T14:15:28.080Z,1.40
2022-12-03T14:18:04.657Z,1.16
2022-12-03T14:21:01.150Z,1.47
2022-12-03T14:23:29.244Z,1.43
2022-12-03T14:26:05.303Z,1.40
2022-12-03T14:28:35.223Z,1.38
2022-12-03T14:31:03.480Z,1.14
2022-12-03T14:33:33.306Z,1.41
2022-12-03T14:36:01.460Z,1.35
2022-12-03T14:38:30.298Z,1.27
2022-12-03T14:40:58.767Z,1.07
2022-12-03T14:43:44.220Z,1.22
2022-12-03T14:46:14.279Z,1.25
2022-12-03T14:48:44.253Z,1.27
2022-12-03T14:51:23.876Z,1.03
2022-12-03T14:53:57.786Z,1.27
2022-12-03T14:56:33.427Z,1.21
2022-12-03T14:59:01.565Z,0.98
2022-12-03T15:01:31.219Z,1.20
2022-12-03T15:04:01.596Z,1.23
2022-12-03T15:06:29.941Z,1.17
2022-12-03T15:08:58.156Z,1.09
2022-12-03T15:11:35.117Z,1.15
2022-12-03T15:14:47.936Z,0.85
2022-12-03T15:21:51.715Z,1.08
2022-12-03T15:24:30.780Z,0.85
2022-12-03T15:26:59.503Z,0.96
2022-12-03T15:29:27.606Z,0.79
2022-12-03T15:31:55.973Z,0.40
2022-12-03T15:34:34.500Z,0.94
2022-12-03T15:37:09.327Z,1.04
2022-12-03T15:39:44.995Z,0.67
2022-12-03T15:42:19.647Z,0.50
2022-12-03T15:44:48.541Z,0.90
2022-12-03T15:47:19.241Z,0.90
2022-12-03T15:49:49.192Z,0.82
2022-12-03T15:52:17.506Z,0.91
2022-12-03T15:54:57.730Z,0.88
2022-12-03T15:57:29.933Z,0.63
2022-12-03T15:59:58.370Z,0.94
2022-12-03T16:02:27.986Z,0.86
2022-12-03T16:05:08.340Z,0.79
2022-12-03T16:07:37.959Z,0.84
2022-12-03T16:10:14.075Z,0.90
2022-12-03T16:12:45.540Z,0.85
2022-12-03T16:15:27.210Z,0.74
2022-12-03T16:17:55.936Z,0.53
2022-12-03T16:20:27.095Z,0.82
2022-12-03T16:22:58.319Z,0.78
2022-12-03T16:25:34.898Z,0.60
2022-12-03T16:28:32.563Z,0.77
2022-12-03T16:31:02.949Z,0.74
2022-12-03T16:33:31.551Z,0.80
2022-12-03T16:36:07.185Z,0.79
2022-12-03T16:38:56.114Z,0.58
2022-12-03T16:41:54.171Z,0.85
2022-12-03T16:50:29.078Z,0.77
2022-12-03T16:55:48.614Z,0.85
2022-12-03T16:58:21.515Z,0.80
2022-12-03T17:00:50.854Z,0.86
2022-12-03T17:03:20.659Z,0.76
2022-12-03T17:05:49.913Z,0.81
2022-12-03T17:08:18.335Z,0.82
2022-12-03T17:10:46.673Z,0.88
2022-12-03T17:13:15.709Z,0.82
2022-12-03T17:15:44.209Z,0.85
2022-12-03T17:18:14.794Z,0.75
2022-12-03T17:20:43.887Z,0.57
2022-12-03T17:23:19.311Z,0.81
2022-12-03T17:25:48.300Z,0.85
2022-12-03T17:28:16.649Z,0.83
2022-12-03T17:30:47.237Z,0.86
2022-12-03T17:33:31.079Z,0.87
2022-12-03T17:35:59.328Z,0.81
2022-12-03T17:38:35.623Z,0.86
2022-12-03T17:41:07.828Z,0.86
2022-12-03T17:43:35.927Z,0.84
2022-12-03T17:46:05.614Z,0.61
2022-12-03T17:48:35.760Z,0.82
2022-12-03T17:51:03.805Z,-0.02
2022-12-03T17:53:32.035Z,0.74
2022-12-03T17:56:00.249Z,0.64
2022-12-03T17:58:28.741Z,0.52
2022-12-03T18:01:02.155Z,0.80
2022-12-03T18:03:31.630Z,0.76
2022-12-03T18:05:59.894Z,0.76
2022-12-03T18:08:28.696Z,0.79
2022-12-03T18:10:59.648Z,0.83
2022-12-03T18:13:28.334Z,0.79
2022-12-03T18:15:59.682Z,0.86
2022-12-03T18:18:30.219Z,0.88
2022-12-03T18:21:02.319Z,0.32
2022-12-03T18:23:32.570Z,0.84
2022-12-03T18:26:02.157Z,0.86
2022-12-03T18:28:31.450Z,0.81
2022-12-03T18:31:00.702Z,0.87
2022-12-03T18:33:29.236Z,0.90
2022-12-03T18:35:59.787Z,0.92
2022-12-03T18:38:33.582Z,0.70
2022-12-03T18:41:02.100Z,0.86
2022-12-03T18:43:30.567Z,0.87
2022-12-03T18:45:58.934Z,0.79
2022-12-03T18:48:26.902Z,0.75
2022-12-03T18:50:56.852Z,0.75
2022-12-03T18:53:25.135Z,0.41
2022-12-03T18:55:53.118Z,0.72
2022-12-03T18:58:21.499Z,0.67
2022-12-03T19:00:50.107Z,0.72
2022-12-03T19:03:18.336Z,0.13
2022-12-03T19:05:46.514Z,0.69
2022-12-03T19:08:15.289Z,0.67
2022-12-03T19:10:44.407Z,0.69
2022-12-03T19:13:14.636Z,0.67
2022-12-03T19:15:42.744Z,0.74
2022-12-03T19:18:10.880Z,0.32
2022-12-03T19:20:44.527Z,0.76
2022-12-03T19:23:15.590Z,0.66
2022-12-03T19:25:55.890Z,0.72
2022-12-03T19:28:24.488Z,0.61
2022-12-03T19:31:02.837Z,0.69
2022-12-03T19:33:32.146Z,0.73
2022-12-03T19:36:01.724Z,0.74
2022-12-03T19:38:30.892Z,0.72
2022-12-03T19:41:06.607Z,0.79
2022-12-03T19:43:36.911Z,0.82
2022-12-03T19:46:08.560Z,0.65
2022-12-03T19:48:38.562Z,0.74
2022-12-03T19:51:32.936Z,0.53
2022-12-03T19:53:57.360Z,0.77
2022-12-03T19:56:25.851Z,0.75
2022-12-03T19:58:55.842Z,0.72
2022-12-03T20:01:28.348Z,0.50
2022-12-03T20:03:59.534Z,0.75
2022-12-03T20:06:32.076Z,0.49
2022-12-03T20:09:04.819Z,0.66
2022-12-03T20:11:34.805Z,0.67
2022-12-03T20:14:07.901Z,0.73
2022-12-03T20:16:37.423Z,0.66
2022-12-03T20:19:08.399Z,0.69
2022-12-03T20:21:38.658Z,0.70
2022-12-03T20:24:13.141Z,0.67
2022-12-03T20:26:42.245Z,-0.20
2022-12-03T20:29:10.663Z,0.68
2022-12-03T20:31:39.803Z,0.52
2022-12-03T20:34:10.388Z,0.66
2022-12-03T20:36:39.487Z,-0.17
2022-12-03T20:39:11.897Z,0.68
2022-12-03T20:41:40.212Z,0.70
2022-12-03T20:44:08.413Z,0.71
2022-12-03T20:46:39.596Z,0.78
2022-12-03T20:49:08.133Z,0.71
2022-12-03T20:51:37.170Z,0.81
2022-12-03T20:54:05.819Z,0.04
2022-12-03T20:56:39.693Z,0.75
2022-12-03T20:59:12.631Z,0.48
2022-12-03T21:01:42.445Z,0.69
2022-12-03T21:04:16.600Z,0.45
2022-12-03T21:06:46.613Z,-0.12
2022-12-03T21:09:16.160Z,0.77
2022-12-03T21:11:44.423Z,0.72
2022-12-03T21:14:12.561Z,0.52
2022-12-03T21:17:07.062Z,0.66
2022-12-03T21:19:35.007Z,0.02
2022-12-03T21:22:04.151Z,0.64
2022-12-03T21:24:32.291Z,0.70
2022-12-03T21:27:00.600Z,0.47
2022-12-03T21:29:28.986Z,0.71
2022-12-03T21:31:57.484Z,0.74
2022-12-03T21:34:27.387Z,0.52
2022-12-03T21:36:58.442Z,0.64
2022-12-03T21:39:26.886Z,0.71
2022-12-03T21:42:22.078Z,0.59
2022-12-03T21:44:43.569Z,0.81
2022-12-03T21:47:14.211Z,0.78
2022-12-03T21:49:43.003Z,0.66
2022-12-03T21:52:11.147Z,0.72
2022-12-03T21:54:39.337Z,0.50
2022-12-03T21:57:08.132Z,0.59
2022-12-03T21:59:36.552Z,0.50
2022-12-03T22:02:05.225Z,0.73
2022-12-03T22:04:33.493Z,0.66
2022-12-03T22:07:01.776Z,0.65
2022-12-03T22:09:32.253Z,0.46
2022-12-03T22:12:01.152Z,0.64
2022-12-03T22:14:30.110Z,0.64
2022-12-03T22:17:00.744Z,0.52
2022-12-03T22:19:29.004Z,0.37
2022-12-03T22:21:57.429Z,0.63
2022-12-03T22:24:28.429Z,0.61
2022-12-03T22:27:00.013Z,0.54
2022-12-03T22:29:28.290Z,0.28
2022-12-03T22:31:56.988Z,0.52
2022-12-03T22:34:25.340Z,0.49
2022-12-03T22:36:53.909Z,-0.24
2022-12-03T22:39:21.926Z,0.41
2022-12-03T22:41:50.043Z,0.45
2022-12-03T22:44:18.537Z,0.50
2022-12-03T22:46:46.670Z,0.54
2022-12-03T22:49:14.950Z,0.45
2022-12-03T22:51:46.669Z,0.47
2022-12-03T22:54:19.305Z,0.41
2022-12-03T22:56:50.821Z,0.51
2022-12-03T22:59:19.248Z,0.53
2022-12-03T23:01:47.809Z,0.20
2022-12-03T23:04:16.192Z,0.36
2022-12-03T23:06:44.301Z,0.37
2022-12-03T23:09:12.608Z,0.40
2022-12-03T23:11:42.920Z,0.45
2022-12-03T23:14:12.465Z,-0.17
2022-12-03T23:16:41.573Z,0.07
2022-12-03T23:19:09.673Z,0.16
2022-12-03T23:21:38.730Z,-0.10
2022-12-03T23:24:07.949Z,0.01
2022-12-03T23:26:38.379Z,0.20
2022-12-03T23:29:08.564Z,0.37
2022-12-03T23:31:37.034Z,0.06
2022-12-03T23:34:05.854Z,0.24
2022-12-03T23:36:36.146Z,0.24
2022-12-03T23:39:05.781Z,0.01
2022-12-03T23:41:33.866Z,0.22
2022-12-03T23:44:01.820Z,0.31
2022-12-03T23:46:30.171Z,0.25
2022-12-03T23:48:59.636Z,0.23
2022-12-03T23:51:27.716Z,0.25
2022-12-03T23:53:57.020Z,-0.04
2022-12-03T23:56:29.646Z,0.22
2022-12-03T23:58:58.537Z,0.27
